sensor_id;sensor_type;location;lat;lon;timestamp;P1;durP1;ratioP1;P2;durP2;ratioP2
75680;SDS011;64294;49.176;16.626;2023-05-24T00:01:30;12.10;;;6.72;;
75680;SDS011;64294;49.176;16.626;2023-05-24T00:03:55;9.63;;;6.63;;
75680;SDS011;64294;49.176;16.626;2023-05-24T00:06:24;10.25;;;6.95;;
75680;SDS011;64294;49.176;16.626;2023-05-24T00:08:51;9.48;;;6.70;;
75680;SDS011;64294;49.176;16.626;2023-05-24T00:11:17;9.98;;;7.13;;
75680;SDS011;64294;49.176;16.626;2023-05-24T00:13:43;8.90;;;6.80;;
75680;SDS011;64294;49.176;16.626;2023-05-24T00:16:09;10.85;;;7.10;;
75680;SDS011;64294;49.176;16.626;2023-05-24T00:18:35;9.57;;;6.75;;
75680;SDS011;64294;49.176;16.626;2023-05-24T00:21:05;9.13;;;5.57;;
75680;SDS011;64294;49.176;16.626;2023-05-24T00:23:31;8.65;;;6.07;;
75680;SDS011;64294;49.176;16.626;2023-05-24T00:25:57;8.77;;;6.03;;
75680;SDS011;64294;49.176;16.626;2023-05-24T00:28:22;10.55;;;6.28;;
75680;SDS011;64294;49.176;16.626;2023-05-24T00:30:47;9.43;;;5.70;;
75680;SDS011;64294;49.176;16.626;2023-05-24T00:33:15;8.82;;;6.03;;
75680;SDS011;64294;49.176;16.626;2023-05-24T00:35:40;8.60;;;6.00;;
75680;SDS011;64294;49.176;16.626;2023-05-24T00:38:05;9.38;;;6.03;;
75680;SDS011;64294;49.176;16.626;2023-05-24T00:40:31;8.32;;;5.70;;
75680;SDS011;64294;49.176;16.626;2023-05-24T00:42:56;9.25;;;5.93;;
75680;SDS011;64294;49.176;16.626;2023-05-24T00:45:22;8.73;;;5.53;;
75680;SDS011;64294;49.176;16.626;2023-05-24T00:47:47;8.38;;;6.00;;
75680;SDS011;64294;49.176;16.626;2023-05-24T00:50:13;8.63;;;5.72;;
75680;SDS011;64294;49.176;16.626;2023-05-24T00:52:41;9.25;;;5.50;;
75680;SDS011;64294;49.176;16.626;2023-05-24T00:55:07;7.60;;;5.50;;
75680;SDS011;64294;49.176;16.626;2023-05-24T00:57:36;7.95;;;5.15;;
75680;SDS011;64294;49.176;16.626;2023-05-24T01:00:02;9.82;;;5.63;;
75680;SDS011;64294;49.176;16.626;2023-05-24T01:02:29;11.93;;;6.00;;
75680;SDS011;64294;49.176;16.626;2023-05-24T01:04:56;8.90;;;5.68;;
75680;SDS011;64294;49.176;16.626;2023-05-24T01:07:36;9.75;;;5.80;;
75680;SDS011;64294;49.176;16.626;2023-05-24T01:10:06;7.85;;;5.70;;
75680;SDS011;64294;49.176;16.626;2023-05-24T01:12:49;9.07;;;5.85;;
75680;SDS011;64294;49.176;16.626;2023-05-24T01:15:27;9.23;;;5.38;;
75680;SDS011;64294;49.176;16.626;2023-05-24T01:20:41;7.40;;;5.15;;
75680;SDS011;64294;49.176;16.626;2023-05-24T01:23:14;8.80;;;5.80;;
75680;SDS011;64294;49.176;16.626;2023-05-24T01:25:48;10.85;;;5.47;;
75680;SDS011;64294;49.176;16.626;2023-05-24T01:28:39;8.35;;;5.13;;
75680;SDS011;64294;49.176;16.626;2023-05-24T01:31:07;7.20;;;5.22;;
75680;SDS011;64294;49.176;16.626;2023-05-24T01:33:33;8.77;;;5.50;;
75680;SDS011;64294;49.176;16.626;2023-05-24T01:35:58;8.85;;;5.35;;
75680;SDS011;64294;49.176;16.626;2023-05-24T01:38:24;8.35;;;5.40;;
75680;SDS011;64294;49.176;16.626;2023-05-24T01:40:51;8.18;;;5.20;;
75680;SDS011;64294;49.176;16.626;2023-05-24T01:43:30;7.45;;;5.03;;
75680;SDS011;64294;49.176;16.626;2023-05-24T01:46:18;8.60;;;5.20;;
75680;SDS011;64294;49.176;16.626;2023-05-24T01:51:33;6.65;;;5.03;;
75680;SDS011;64294;49.176;16.626;2023-05-24T01:54:05;7.35;;;5.15;;
75680;SDS011;64294;49.176;16.626;2023-05-24T01:56:33;6.95;;;5.22;;
75680;SDS011;64294;49.176;16.626;2023-05-24T01:59:00;7.03;;;5.15;;
75680;SDS011;64294;49.176;16.626;2023-05-24T02:01:26;6.18;;;4.50;;
75680;SDS011;64294;49.176;16.626;2023-05-24T02:03:52;6.43;;;4.75;;
75680;SDS011;64294;49.176;16.626;2023-05-24T02:06:18;6.90;;;4.15;;
75680;SDS011;64294;49.176;16.626;2023-05-24T02:08:44;5.40;;;4.05;;
75680;SDS011;64294;49.176;16.626;2023-05-24T02:11:10;8.82;;;3.80;;
75680;SDS011;64294;49.176;16.626;2023-05-24T02:13:35;6.22;;;4.28;;
75680;SDS011;64294;49.176;16.626;2023-05-24T02:16:01;6.47;;;3.80;;
75680;SDS011;64294;49.176;16.626;2023-05-24T02:18:28;6.22;;;3.78;;
75680;SDS011;64294;49.176;16.626;2023-05-24T02:20:58;4.25;;;3.60;;
75680;SDS011;64294;49.176;16.626;2023-05-24T02:23:25;7.35;;;3.60;;
75680;SDS011;64294;49.176;16.626;2023-05-24T02:25:50;3.30;;;2.90;;
75680;SDS011;64294;49.176;16.626;2023-05-24T02:28:15;8.07;;;2.60;;
75680;SDS011;64294;49.176;16.626;2023-05-24T02:30:41;5.80;;;2.83;;
75680;SDS011;64294;49.176;16.626;2023-05-24T02:33:08;5.15;;;2.58;;
75680;SDS011;64294;49.176;16.626;2023-05-24T02:35:35;2.70;;;2.30;;
75680;SDS011;64294;49.176;16.626;2023-05-24T02:38:00;2.80;;;2.30;;
75680;SDS011;64294;49.176;16.626;2023-05-24T02:40:27;4.03;;;2.47;;
75680;SDS011;64294;49.176;16.626;2023-05-24T02:42:56;2.35;;;2.00;;
75680;SDS011;64294;49.176;16.626;2023-05-24T02:45:23;2.80;;;1.90;;
75680;SDS011;64294;49.176;16.626;2023-05-24T02:47:48;4.22;;;2.10;;
75680;SDS011;64294;49.176;16.626;2023-05-24T02:50:13;3.33;;;2.05;;
75680;SDS011;64294;49.176;16.626;2023-05-24T02:52:39;3.70;;;1.90;;
75680;SDS011;64294;49.176;16.626;2023-05-24T02:55:05;4.05;;;2.08;;
75680;SDS011;64294;49.176;16.626;2023-05-24T02:57:31;4.32;;;2.30;;
75680;SDS011;64294;49.176;16.626;2023-05-24T02:59:58;4.70;;;2.40;;
75680;SDS011;64294;49.176;16.626;2023-05-24T03:02:24;9.25;;;3.22;;
75680;SDS011;64294;49.176;16.626;2023-05-24T03:04:52;10.65;;;3.83;;
75680;SDS011;64294;49.176;16.626;2023-05-24T03:07:17;6.20;;;3.25;;
75680;SDS011;64294;49.176;16.626;2023-05-24T03:09:43;3.88;;;2.15;;
75680;SDS011;64294;49.176;16.626;2023-05-24T03:12:08;6.65;;;3.00;;
75680;SDS011;64294;49.176;16.626;2023-05-24T03:14:34;6.97;;;3.03;;
75680;SDS011;64294;49.176;16.626;2023-05-24T03:16:59;4.70;;;3.08;;
75680;SDS011;64294;49.176;16.626;2023-05-24T03:19:24;5.05;;;2.10;;
75680;SDS011;64294;49.176;16.626;2023-05-24T03:21:50;3.38;;;2.05;;
75680;SDS011;64294;49.176;16.626;2023-05-24T03:24:16;4.25;;;2.15;;
75680;SDS011;64294;49.176;16.626;2023-05-24T03:26:41;3.38;;;2.25;;
75680;SDS011;64294;49.176;16.626;2023-05-24T03:29:07;2.47;;;2.10;;
75680;SDS011;64294;49.176;16.626;2023-05-24T03:31:32;3.75;;;2.45;;
75680;SDS011;64294;49.176;16.626;2023-05-24T03:33:58;3.67;;;2.30;;
75680;SDS011;64294;49.176;16.626;2023-05-24T03:36:23;3.03;;;2.33;;
75680;SDS011;64294;49.176;16.626;2023-05-24T03:38:50;3.08;;;2.60;;
75680;SDS011;64294;49.176;16.626;2023-05-24T03:41:15;3.10;;;2.67;;
75680;SDS011;64294;49.176;16.626;2023-05-24T03:43:41;3.45;;;2.55;;
75680;SDS011;64294;49.176;16.626;2023-05-24T03:46:06;7.18;;;2.55;;
75680;SDS011;64294;49.176;16.626;2023-05-24T03:48:32;2.95;;;2.50;;
75680;SDS011;64294;49.176;16.626;2023-05-24T03:50:57;6.40;;;2.70;;
75680;SDS011;64294;49.176;16.626;2023-05-24T03:53:23;5.00;;;2.72;;
75680;SDS011;64294;49.176;16.626;2023-05-24T03:55:49;3.70;;;2.70;;
75680;SDS011;64294;49.176;16.626;2023-05-24T03:58:15;5.10;;;2.95;;
75680;SDS011;64294;49.176;16.626;2023-05-24T04:00:41;3.22;;;2.63;;
75680;SDS011;64294;49.176;16.626;2023-05-24T04:03:06;5.03;;;2.80;;
75680;SDS011;64294;49.176;16.626;2023-05-24T04:05:33;4.13;;;2.70;;
75680;SDS011;64294;49.176;16.626;2023-05-24T04:07:59;4.75;;;2.97;;
75680;SDS011;64294;49.176;16.626;2023-05-24T04:10:24;5.43;;;2.95;;
75680;SDS011;64294;49.176;16.626;2023-05-24T04:12:50;3.70;;;2.80;;
75680;SDS011;64294;49.176;16.626;2023-05-24T04:15:15;6.30;;;2.80;;
75680;SDS011;64294;49.176;16.626;2023-05-24T04:17:41;3.72;;;2.88;;
75680;SDS011;64294;49.176;16.626;2023-05-24T04:20:08;4.90;;;2.90;;
75680;SDS011;64294;49.176;16.626;2023-05-24T04:22:37;4.05;;;3.00;;
75680;SDS011;64294;49.176;16.626;2023-05-24T04:25:03;3.88;;;2.65;;
75680;SDS011;64294;49.176;16.626;2023-05-24T04:27:29;3.17;;;2.88;;
75680;SDS011;64294;49.176;16.626;2023-05-24T04:29:55;3.33;;;2.80;;
75680;SDS011;64294;49.176;16.626;2023-05-24T04:32:21;4.00;;;2.97;;
75680;SDS011;64294;49.176;16.626;2023-05-24T04:34:47;5.43;;;3.00;;
75680;SDS011;64294;49.176;16.626;2023-05-24T04:37:16;2.78;;;2.50;;
75680;SDS011;64294;49.176;16.626;2023-05-24T04:39:45;4.18;;;2.70;;
75680;SDS011;64294;49.176;16.626;2023-05-24T04:42:11;2.97;;;2.67;;
75680;SDS011;64294;49.176;16.626;2023-05-24T04:44:38;4.13;;;2.80;;
75680;SDS011;64294;49.176;16.626;2023-05-24T04:47:04;2.63;;;2.42;;
75680;SDS011;64294;49.176;16.626;2023-05-24T04:49:30;6.07;;;2.97;;
75680;SDS011;64294;49.176;16.626;2023-05-24T04:51:56;2.65;;;2.40;;
75680;SDS011;64294;49.176;16.626;2023-05-24T04:54:22;2.97;;;2.60;;
75680;SDS011;64294;49.176;16.626;2023-05-24T04:56:47;2.78;;;2.40;;
75680;SDS011;64294;49.176;16.626;2023-05-24T04:59:13;10.77;;;6.05;;
75680;SDS011;64294;49.176;16.626;2023-05-24T05:01:38;8.40;;;4.60;;
75680;SDS011;64294;49.176;16.626;2023-05-24T05:04:04;3.80;;;2.58;;
75680;SDS011;64294;49.176;16.626;2023-05-24T05:06:30;3.35;;;2.40;;
75680;SDS011;64294;49.176;16.626;2023-05-24T05:08:58;2.95;;;2.30;;
75680;SDS011;64294;49.176;16.626;2023-05-24T05:11:24;3.88;;;2.40;;
75680;SDS011;64294;49.176;16.626;2023-05-24T05:13:50;2.92;;;2.03;;
75680;SDS011;64294;49.176;16.626;2023-05-24T05:16:15;3.35;;;2.15;;
75680;SDS011;64294;49.176;16.626;2023-05-24T05:18:41;2.50;;;1.70;;
75680;SDS011;64294;49.176;16.626;2023-05-24T05:21:07;3.97;;;1.90;;
75680;SDS011;64294;49.176;16.626;2023-05-24T05:23:32;4.35;;;1.60;;
75680;SDS011;64294;49.176;16.626;2023-05-24T05:25:58;4.97;;;2.63;;
75680;SDS011;64294;49.176;16.626;2023-05-24T05:28:23;19.67;;;11.05;;
75680;SDS011;64294;49.176;16.626;2023-05-24T05:30:49;9.40;;;4.18;;
75680;SDS011;64294;49.176;16.626;2023-05-24T05:33:14;4.13;;;2.03;;
75680;SDS011;64294;49.176;16.626;2023-05-24T05:35:40;4.28;;;2.20;;
75680;SDS011;64294;49.176;16.626;2023-05-24T05:38:05;4.43;;;2.25;;
75680;SDS011;64294;49.176;16.626;2023-05-24T05:40:31;4.03;;;2.22;;
75680;SDS011;64294;49.176;16.626;2023-05-24T05:42:56;3.92;;;1.92;;
75680;SDS011;64294;49.176;16.626;2023-05-24T05:45:23;2.72;;;1.80;;
75680;SDS011;64294;49.176;16.626;2023-05-24T05:47:48;3.45;;;1.77;;
75680;SDS011;64294;49.176;16.626;2023-05-24T05:50:14;4.38;;;2.38;;
75680;SDS011;64294;49.176;16.626;2023-05-24T05:52:39;3.50;;;1.80;;
75680;SDS011;64294;49.176;16.626;2023-05-24T05:55:05;2.97;;;1.75;;
75680;SDS011;64294;49.176;16.626;2023-05-24T05:57:31;2.42;;;1.70;;
75680;SDS011;64294;49.176;16.626;2023-05-24T05:59:56;5.28;;;2.33;;
75680;SDS011;64294;49.176;16.626;2023-05-24T06:02:22;3.10;;;1.85;;
75680;SDS011;64294;49.176;16.626;2023-05-24T06:04:48;4.88;;;2.58;;
75680;SDS011;64294;49.176;16.626;2023-05-24T06:07:14;3.10;;;1.98;;
75680;SDS011;64294;49.176;16.626;2023-05-24T06:09:39;2.92;;;1.80;;
75680;SDS011;64294;49.176;16.626;2023-05-24T06:12:05;2.53;;;1.77;;
75680;SDS011;64294;49.176;16.626;2023-05-24T06:14:30;3.58;;;1.80;;
75680;SDS011;64294;49.176;16.626;2023-05-24T06:16:56;2.33;;;1.75;;
75680;SDS011;64294;49.176;16.626;2023-05-24T06:19:22;3.50;;;1.70;;
75680;SDS011;64294;49.176;16.626;2023-05-24T06:21:48;2.13;;;1.70;;
75680;SDS011;64294;49.176;16.626;2023-05-24T06:24:14;2.17;;;1.88;;
75680;SDS011;64294;49.176;16.626;2023-05-24T06:26:44;5.07;;;1.90;;
75680;SDS011;64294;49.176;16.626;2023-05-24T06:29:10;3.35;;;1.90;;
75680;SDS011;64294;49.176;16.626;2023-05-24T06:31:36;2.70;;;1.80;;
75680;SDS011;64294;49.176;16.626;2023-05-24T06:34:01;3.15;;;2.13;;
75680;SDS011;64294;49.176;16.626;2023-05-24T06:36:27;4.88;;;1.77;;
75680;SDS011;64294;49.176;16.626;2023-05-24T06:38:53;3.90;;;2.00;;
75680;SDS011;64294;49.176;16.626;2023-05-24T06:41:18;3.05;;;1.95;;
75680;SDS011;64294;49.176;16.626;2023-05-24T06:43:43;4.32;;;2.47;;
75680;SDS011;64294;49.176;16.626;2023-05-24T06:46:10;6.72;;;2.13;;
75680;SDS011;64294;49.176;16.626;2023-05-24T06:48:35;3.35;;;1.67;;
75680;SDS011;64294;49.176;16.626;2023-05-24T06:51:01;3.25;;;1.80;;
75680;SDS011;64294;49.176;16.626;2023-05-24T06:53:26;2.78;;;1.90;;
75680;SDS011;64294;49.176;16.626;2023-05-24T06:55:51;5.72;;;1.80;;
75680;SDS011;64294;49.176;16.626;2023-05-24T06:58:17;3.90;;;1.75;;
75680;SDS011;64294;49.176;16.626;2023-05-24T07:00:42;3.88;;;1.60;;
75680;SDS011;64294;49.176;16.626;2023-05-24T07:03:10;3.15;;;1.70;;
75680;SDS011;64294;49.176;16.626;2023-05-24T07:05:37;3.30;;;2.25;;
75680;SDS011;64294;49.176;16.626;2023-05-24T07:08:02;2.30;;;1.80;;
75680;SDS011;64294;49.176;16.626;2023-05-24T07:10:28;4.32;;;2.00;;
75680;SDS011;64294;49.176;16.626;2023-05-24T07:12:54;4.05;;;1.88;;
75680;SDS011;64294;49.176;16.626;2023-05-24T07:15:20;5.03;;;2.17;;
75680;SDS011;64294;49.176;16.626;2023-05-24T07:17:45;3.05;;;1.90;;
75680;SDS011;64294;49.176;16.626;2023-05-24T07:20:12;2.67;;;1.60;;
75680;SDS011;64294;49.176;16.626;2023-05-24T07:22:38;5.35;;;2.10;;
75680;SDS011;64294;49.176;16.626;2023-05-24T07:25:05;3.83;;;2.00;;
75680;SDS011;64294;49.176;16.626;2023-05-24T07:27:31;3.63;;;2.28;;
75680;SDS011;64294;49.176;16.626;2023-05-24T07:29:56;5.97;;;2.30;;
75680;SDS011;64294;49.176;16.626;2023-05-24T07:32:22;4.72;;;2.10;;
75680;SDS011;64294;49.176;16.626;2023-05-24T07:34:48;4.38;;;2.10;;
75680;SDS011;64294;49.176;16.626;2023-05-24T07:37:14;4.65;;;2.33;;
75680;SDS011;64294;49.176;16.626;2023-05-24T07:39:41;5.53;;;2.15;;
75680;SDS011;64294;49.176;16.626;2023-05-24T07:42:07;5.55;;;1.83;;
75680;SDS011;64294;49.176;16.626;2023-05-24T07:44:33;3.83;;;2.00;;
75680;SDS011;64294;49.176;16.626;2023-05-24T07:46:58;4.60;;;2.30;;
75680;SDS011;64294;49.176;16.626;2023-05-24T07:49:26;5.45;;;2.45;;
75680;SDS011;64294;49.176;16.626;2023-05-24T07:51:52;5.30;;;2.08;;
75680;SDS011;64294;49.176;16.626;2023-05-24T07:54:20;4.93;;;2.28;;
75680;SDS011;64294;49.176;16.626;2023-05-24T07:56:46;5.53;;;2.53;;
75680;SDS011;64294;49.176;16.626;2023-05-24T07:59:11;4.65;;;2.40;;
75680;SDS011;64294;49.176;16.626;2023-05-24T08:01:37;4.47;;;2.33;;
75680;SDS011;64294;49.176;16.626;2023-05-24T08:04:03;5.88;;;2.13;;
75680;SDS011;64294;49.176;16.626;2023-05-24T08:06:28;8.20;;;2.60;;
75680;SDS011;64294;49.176;16.626;2023-05-24T08:08:56;6.53;;;2.58;;
75680;SDS011;64294;49.176;16.626;2023-05-24T08:11:21;9.07;;;2.90;;
75680;SDS011;64294;49.176;16.626;2023-05-24T08:13:47;4.65;;;2.53;;
75680;SDS011;64294;49.176;16.626;2023-05-24T08:16:12;5.55;;;2.45;;
75680;SDS011;64294;49.176;16.626;2023-05-24T08:18:37;4.80;;;2.63;;
75680;SDS011;64294;49.176;16.626;2023-05-24T08:21:03;4.50;;;2.53;;
75680;SDS011;64294;49.176;16.626;2023-05-24T08:23:28;7.45;;;2.90;;
75680;SDS011;64294;49.176;16.626;2023-05-24T08:25:55;5.57;;;2.47;;
75680;SDS011;64294;49.176;16.626;2023-05-24T08:28:22;6.22;;;2.60;;
75680;SDS011;64294;49.176;16.626;2023-05-24T08:30:47;4.68;;;2.63;;
75680;SDS011;64294;49.176;16.626;2023-05-24T08:33:13;7.75;;;2.95;;
75680;SDS011;64294;49.176;16.626;2023-05-24T08:35:38;5.25;;;2.42;;
75680;SDS011;64294;49.176;16.626;2023-05-24T08:38:03;6.63;;;2.55;;
75680;SDS011;64294;49.176;16.626;2023-05-24T08:40:29;6.82;;;2.88;;
75680;SDS011;64294;49.176;16.626;2023-05-24T08:42:55;6.85;;;2.67;;
75680;SDS011;64294;49.176;16.626;2023-05-24T08:45:24;8.05;;;2.47;;
75680;SDS011;64294;49.176;16.626;2023-05-24T08:47:50;5.65;;;2.55;;
75680;SDS011;64294;49.176;16.626;2023-05-24T08:50:16;7.45;;;2.50;;
75680;SDS011;64294;49.176;16.626;2023-05-24T08:52:42;6.93;;;2.28;;
75680;SDS011;64294;49.176;16.626;2023-05-24T08:55:10;5.43;;;2.58;;
75680;SDS011;64294;49.176;16.626;2023-05-24T08:57:35;6.40;;;2.70;;
75680;SDS011;64294;49.176;16.626;2023-05-24T09:00:07;5.07;;;2.33;;
75680;SDS011;64294;49.176;16.626;2023-05-24T09:05:08;5.65;;;2.35;;
75680;SDS011;64294;49.176;16.626;2023-05-24T09:07:35;4.05;;;2.10;;
75680;SDS011;64294;49.176;16.626;2023-05-24T09:10:05;4.50;;;2.20;;
75680;SDS011;64294;49.176;16.626;2023-05-24T09:12:32;5.35;;;2.50;;
75680;SDS011;64294;49.176;16.626;2023-05-24T09:14:58;5.97;;;2.63;;
75680;SDS011;64294;49.176;16.626;2023-05-24T09:17:24;7.70;;;2.80;;
75680;SDS011;64294;49.176;16.626;2023-05-24T09:19:50;5.30;;;2.60;;
75680;SDS011;64294;49.176;16.626;2023-05-24T09:22:17;7.50;;;2.80;;
75680;SDS011;64294;49.176;16.626;2023-05-24T09:24:47;5.97;;;2.80;;
75680;SDS011;64294;49.176;16.626;2023-05-24T09:27:14;7.43;;;2.70;;
75680;SDS011;64294;49.176;16.626;2023-05-24T09:29:46;7.30;;;2.90;;
75680;SDS011;64294;49.176;16.626;2023-05-24T09:32:16;6.82;;;2.97;;
75680;SDS011;64294;49.176;16.626;2023-05-24T09:34:43;9.77;;;2.97;;
75680;SDS011;64294;49.176;16.626;2023-05-24T09:37:15;8.00;;;2.83;;
75680;SDS011;64294;49.176;16.626;2023-05-24T09:39:42;6.03;;;2.55;;
75680;SDS011;64294;49.176;16.626;2023-05-24T09:42:18;7.15;;;2.60;;
75680;SDS011;64294;49.176;16.626;2023-05-24T09:44:48;7.05;;;2.70;;
75680;SDS011;64294;49.176;16.626;2023-05-24T09:47:27;7.97;;;2.60;;
75680;SDS011;64294;49.176;16.626;2023-05-24T09:49:56;5.07;;;2.40;;
75680;SDS011;64294;49.176;16.626;2023-05-24T09:52:23;7.20;;;2.38;;
75680;SDS011;64294;49.176;16.626;2023-05-24T09:54:48;5.28;;;2.38;;
75680;SDS011;64294;49.176;16.626;2023-05-24T09:57:17;4.93;;;2.10;;
75680;SDS011;64294;49.176;16.626;2023-05-24T09:59:43;6.03;;;2.22;;
75680;SDS011;64294;49.176;16.626;2023-05-24T10:02:11;7.13;;;3.30;;
75680;SDS011;64294;49.176;16.626;2023-05-24T10:04:40;9.18;;;3.00;;
75680;SDS011;64294;49.176;16.626;2023-05-24T10:07:06;5.25;;;2.22;;
75680;SDS011;64294;49.176;16.626;2023-05-24T10:09:32;7.70;;;2.35;;
75680;SDS011;64294;49.176;16.626;2023-05-24T10:12:03;5.03;;;2.60;;
75680;SDS011;64294;49.176;16.626;2023-05-24T10:14:34;4.40;;;2.17;;
75680;SDS011;64294;49.176;16.626;2023-05-24T10:17:04;5.65;;;2.00;;
75680;SDS011;64294;49.176;16.626;2023-05-24T10:19:34;6.68;;;2.28;;
75680;SDS011;64294;49.176;16.626;2023-05-24T10:22:00;5.70;;;2.30;;
75680;SDS011;64294;49.176;16.626;2023-05-24T10:24:43;5.70;;;2.53;;
75680;SDS011;64294;49.176;16.626;2023-05-24T10:27:13;6.18;;;2.40;;
75680;SDS011;64294;49.176;16.626;2023-05-24T10:32:10;7.20;;;2.65;;
75680;SDS011;64294;49.176;16.626;2023-05-24T10:34:41;7.63;;;2.70;;
75680;SDS011;64294;49.176;16.626;2023-05-24T10:37:07;10.45;;;2.53;;
75680;SDS011;64294;49.176;16.626;2023-05-24T10:39:33;6.22;;;2.50;;
75680;SDS011;64294;49.176;16.626;2023-05-24T10:42:03;5.20;;;2.20;;
75680;SDS011;64294;49.176;16.626;2023-05-24T10:44:29;5.97;;;2.38;;
75680;SDS011;64294;49.176;16.626;2023-05-24T10:47:05;7.28;;;2.40;;
75680;SDS011;64294;49.176;16.626;2023-05-24T10:49:34;4.97;;;2.42;;
75680;SDS011;64294;49.176;16.626;2023-05-24T10:52:01;11.40;;;2.92;;
75680;SDS011;64294;49.176;16.626;2023-05-24T10:54:32;6.88;;;2.47;;
75680;SDS011;64294;49.176;16.626;2023-05-24T10:56:59;5.00;;;2.50;;
75680;SDS011;64294;49.176;16.626;2023-05-24T11:04:49;6.90;;;2.70;;
75680;SDS011;64294;49.176;16.626;2023-05-24T11:07:15;6.70;;;3.00;;
75680;SDS011;64294;49.176;16.626;2023-05-24T11:09:44;6.30;;;3.05;;
75680;SDS011;64294;49.176;16.626;2023-05-24T11:12:17;3.95;;;2.35;;
75680;SDS011;64294;49.176;16.626;2023-05-24T11:14:50;7.20;;;3.10;;
75680;SDS011;64294;49.176;16.626;2023-05-24T11:17:21;8.20;;;2.70;;
75680;SDS011;64294;49.176;16.626;2023-05-24T11:22:18;6.07;;;3.05;;
75680;SDS011;64294;49.176;16.626;2023-05-24T11:24:45;6.32;;;2.50;;
75680;SDS011;64294;49.176;16.626;2023-05-24T11:27:11;4.03;;;2.60;;
75680;SDS011;64294;49.176;16.626;2023-05-24T11:29:42;4.97;;;2.92;;
75680;SDS011;64294;49.176;16.626;2023-05-24T11:32:09;5.43;;;2.70;;
75680;SDS011;64294;49.176;16.626;2023-05-24T11:34:38;5.78;;;2.90;;
75680;SDS011;64294;49.176;16.626;2023-05-24T11:37:04;5.70;;;2.83;;
75680;SDS011;64294;49.176;16.626;2023-05-24T11:39:33;5.65;;;2.90;;
75680;SDS011;64294;49.176;16.626;2023-05-24T11:42:02;5.60;;;2.50;;
75680;SDS011;64294;49.176;16.626;2023-05-24T11:44:30;4.88;;;2.22;;
75680;SDS011;64294;49.176;16.626;2023-05-24T11:47:00;4.38;;;2.47;;
75680;SDS011;64294;49.176;16.626;2023-05-24T11:49:26;7.90;;;2.72;;
75680;SDS011;64294;49.176;16.626;2023-05-24T11:51:53;6.35;;;2.90;;
75680;SDS011;64294;49.176;16.626;2023-05-24T11:54:20;5.05;;;2.67;;
75680;SDS011;64294;49.176;16.626;2023-05-24T11:56:46;8.45;;;2.47;;
75680;SDS011;64294;49.176;16.626;2023-05-24T12:01:48;5.35;;;2.50;;
75680;SDS011;64294;49.176;16.626;2023-05-24T12:04:15;6.90;;;2.80;;
75680;SDS011;64294;49.176;16.626;2023-05-24T12:06:41;3.58;;;2.20;;
75680;SDS011;64294;49.176;16.626;2023-05-24T12:09:09;6.15;;;2.60;;
75680;SDS011;64294;49.176;16.626;2023-05-24T12:11:38;5.18;;;2.50;;
75680;SDS011;64294;49.176;16.626;2023-05-24T12:14:27;10.85;;;2.67;;
75680;SDS011;64294;49.176;16.626;2023-05-24T12:16:54;7.10;;;2.60;;
75680;SDS011;64294;49.176;16.626;2023-05-24T12:19:24;7.82;;;2.22;;
75680;SDS011;64294;49.176;16.626;2023-05-24T12:21:54;6.22;;;2.53;;
75680;SDS011;64294;49.176;16.626;2023-05-24T12:24:21;4.22;;;2.22;;
75680;SDS011;64294;49.176;16.626;2023-05-24T12:26:48;6.22;;;2.42;;
75680;SDS011;64294;49.176;16.626;2023-05-24T12:29:14;4.93;;;2.70;;
75680;SDS011;64294;49.176;16.626;2023-05-24T12:31:40;7.57;;;2.80;;
75680;SDS011;64294;49.176;16.626;2023-05-24T12:34:17;5.22;;;2.40;;
75680;SDS011;64294;49.176;16.626;2023-05-24T12:36:43;5.32;;;2.40;;
75680;SDS011;64294;49.176;16.626;2023-05-24T12:39:23;7.40;;;2.60;;
75680;SDS011;64294;49.176;16.626;2023-05-24T12:41:55;5.55;;;2.45;;
75680;SDS011;64294;49.176;16.626;2023-05-24T12:44:26;5.38;;;2.78;;
75680;SDS011;64294;49.176;16.626;2023-05-24T12:46:53;8.18;;;3.20;;
75680;SDS011;64294;49.176;16.626;2023-05-24T12:49:20;5.63;;;2.90;;
75680;SDS011;64294;49.176;16.626;2023-05-24T12:51:46;5.80;;;2.63;;
75680;SDS011;64294;49.176;16.626;2023-05-24T12:54:12;5.45;;;2.88;;
75680;SDS011;64294;49.176;16.626;2023-05-24T12:56:38;6.85;;;3.00;;
75680;SDS011;64294;49.176;16.626;2023-05-24T12:59:03;5.63;;;2.33;;
75680;SDS011;64294;49.176;16.626;2023-05-24T13:01:29;4.22;;;2.47;;
75680;SDS011;64294;49.176;16.626;2023-05-24T13:03:55;7.28;;;3.00;;
75680;SDS011;64294;49.176;16.626;2023-05-24T13:06:20;6.90;;;2.67;;
75680;SDS011;64294;49.176;16.626;2023-05-24T13:08:46;5.07;;;2.70;;
75680;SDS011;64294;49.176;16.626;2023-05-24T13:11:11;5.63;;;2.40;;
75680;SDS011;64294;49.176;16.626;2023-05-24T13:13:37;6.45;;;3.17;;
75680;SDS011;64294;49.176;16.626;2023-05-24T13:16:03;4.60;;;3.40;;
75680;SDS011;64294;49.176;16.626;2023-05-24T13:18:31;7.13;;;3.35;;
75680;SDS011;64294;49.176;16.626;2023-05-24T13:20:57;9.98;;;3.97;;
75680;SDS011;64294;49.176;16.626;2023-05-24T13:23:24;66.85;;;17.80;;
75680;SDS011;64294;49.176;16.626;2023-05-24T13:25:50;37.13;;;12.40;;
75680;SDS011;64294;49.176;16.626;2023-05-24T13:28:16;18.42;;;5.90;;
75680;SDS011;64294;49.176;16.626;2023-05-24T13:30:42;18.63;;;5.70;;
75680;SDS011;64294;49.176;16.626;2023-05-24T13:33:07;19.95;;;7.28;;
75680;SDS011;64294;49.176;16.626;2023-05-24T13:35:33;16.27;;;5.38;;
75680;SDS011;64294;49.176;16.626;2023-05-24T13:37:58;28.20;;;7.90;;
75680;SDS011;64294;49.176;16.626;2023-05-24T13:40:24;11.55;;;5.18;;
75680;SDS011;64294;49.176;16.626;2023-05-24T13:42:50;12.45;;;4.95;;
75680;SDS011;64294;49.176;16.626;2023-05-24T13:45:16;17.08;;;6.65;;
75680;SDS011;64294;49.176;16.626;2023-05-24T13:47:42;26.17;;;7.85;;
75680;SDS011;64294;49.176;16.626;2023-05-24T13:50:07;18.80;;;6.13;;
75680;SDS011;64294;49.176;16.626;2023-05-24T13:52:33;10.75;;;4.05;;
75680;SDS011;64294;49.176;16.626;2023-05-24T13:55:01;14.57;;;5.45;;
75680;SDS011;64294;49.176;16.626;2023-05-24T13:57:28;15.98;;;5.32;;
75680;SDS011;64294;49.176;16.626;2023-05-24T13:59:54;7.53;;;3.05;;
75680;SDS011;64294;49.176;16.626;2023-05-24T14:02:19;12.82;;;4.57;;
75680;SDS011;64294;49.176;16.626;2023-05-24T14:04:45;7.15;;;3.50;;
75680;SDS011;64294;49.176;16.626;2023-05-24T14:07:11;9.20;;;3.90;;
75680;SDS011;64294;49.176;16.626;2023-05-24T14:09:39;8.07;;;3.33;;
75680;SDS011;64294;49.176;16.626;2023-05-24T14:12:07;8.93;;;3.20;;
75680;SDS011;64294;49.176;16.626;2023-05-24T14:14:37;10.30;;;3.78;;
75680;SDS011;64294;49.176;16.626;2023-05-24T14:17:03;8.07;;;3.00;;
75680;SDS011;64294;49.176;16.626;2023-05-24T14:19:29;6.80;;;2.75;;
75680;SDS011;64294;49.176;16.626;2023-05-24T14:21:54;16.13;;;5.00;;
75680;SDS011;64294;49.176;16.626;2023-05-24T14:24:20;5.72;;;2.92;;
75680;SDS011;64294;49.176;16.626;2023-05-24T14:26:45;8.32;;;3.10;;
75680;SDS011;64294;49.176;16.626;2023-05-24T14:29:11;8.80;;;3.08;;
75680;SDS011;64294;49.176;16.626;2023-05-24T14:31:37;9.20;;;4.53;;
75680;SDS011;64294;49.176;16.626;2023-05-24T14:34:09;7.25;;;2.65;;
75680;SDS011;64294;49.176;16.626;2023-05-24T14:36:35;9.43;;;3.00;;
75680;SDS011;64294;49.176;16.626;2023-05-24T14:39:02;6.93;;;2.80;;
75680;SDS011;64294;49.176;16.626;2023-05-24T14:41:31;6.43;;;2.80;;
75680;SDS011;64294;49.176;16.626;2023-05-24T14:43:57;7.55;;;2.88;;
75680;SDS011;64294;49.176;16.626;2023-05-24T14:46:22;6.13;;;2.55;;
75680;SDS011;64294;49.176;16.626;2023-05-24T14:48:48;7.97;;;2.50;;
75680;SDS011;64294;49.176;16.626;2023-05-24T14:51:14;6.03;;;2.35;;
75680;SDS011;64294;49.176;16.626;2023-05-24T14:53:39;9.40;;;3.55;;